sensor_id;sensor_type;location;lat;lon;timestamp;temperature;humidity
18218;DHT22;9234;49.344;11.120;2023-03-01T00:01:47;-2.60;99.90
18218;DHT22;9234;49.344;11.120;2023-03-01T00:04:15;-2.60;99.90
18218;DHT22;9234;49.344;11.120;2023-03-01T00:06:44;-2.60;99.90
18218;DHT22;9234;49.344;11.120;2023-03-01T00:09:15;-2.70;99.90
18218;DHT22;9234;49.344;11.120;2023-03-01T00:11:44;-2.70;99.90
18218;DHT22;9234;49.344;11.120;2023-03-01T00:14:13;-2.70;99.90
18218;DHT22;9234;49.344;11.120;2023-03-01T00:16:44;-2.70;99.90
18218;DHT22;9234;49.344;11.120;2023-03-01T00:19:14;-2.70;99.90
18218;DHT22;9234;49.344;11.120;2023-03-01T00:21:44;-2.80;99.90
18218;DHT22;9234;49.344;11.120;2023-03-01T00:24:14;-2.80;99.90
18218;DHT22;9234;49.344;11.120;2023-03-01T00:26:43;-2.80;99.90
18218;DHT22;9234;49.344;11.120;2023-03-01T00:29:11;-2.80;99.90
18218;DHT22;9234;49.344;11.120;2023-03-01T00:31:40;-2.80;99.90
18218;DHT22;9234;49.344;11.120;2023-03-01T00:34:09;-2.80;99.90
18218;DHT22;9234;49.344;11.120;2023-03-01T00:36:37;-2.90;99.90
18218;DHT22;9234;49.344;11.120;2023-03-01T00:39:11;-2.90;99.90
18218;DHT22;9234;49.344;11.120;2023-03-01T00:41:42;-2.90;99.90
18218;DHT22;9234;49.344;11.120;2023-03-01T00:44:11;-2.90;99.90
18218;DHT22;9234;49.344;11.120;2023-03-01T00:46:39;-2.90;99.90
18218;DHT22;9234;49.344;11.120;2023-03-01T00:49:08;-2.90;99.90
18218;DHT22;9234;49.344;11.120;2023-03-01T00:51:36;-2.90;99.90
18218;DHT22;9234;49.344;11.120;2023-03-01T00:54:06;-2.90;99.90
18218;DHT22;9234;49.344;11.120;2023-03-01T00:56:36;-2.90;99.90
18218;DHT22;9234;49.344;11.120;2023-03-01T00:59:05;-2.90;99.90
18218;DHT22;9234;49.344;11.120;2023-03-01T01:01:34;-2.90;99.90
18218;DHT22;9234;49.344;11.120;2023-03-01T01:04:04;-2.90;99.90
18218;DHT22;9234;49.344;11.120;2023-03-01T01:06:35;-2.90;99.90
18218;DHT22;9234;49.344;11.120;2023-03-01T01:09:06;-2.90;99.90
18218;DHT22;9234;49.344;11.120;2023-03-01T01:11:35;-2.90;99.90
18218;DHT22;9234;49.344;11.120;2023-03-01T01:14:05;-2.90;99.90
18218;DHT22;9234;49.344;11.120;2023-03-01T01:16:33;-2.90;99.90
18218;DHT22;9234;49.344;11.120;2023-03-01T01:19:02;-2.90;99.90
18218;DHT22;9234;49.344;11.120;2023-03-01T01:21:30;-2.90;99.90
18218;DHT22;9234;49.344;11.120;2023-03-01T01:24:00;-2.90;99.90
18218;DHT22;9234;49.344;11.120;2023-03-01T01:26:31;-2.90;99.90
18218;DHT22;9234;49.344;11.120;2023-03-01T01:29:02;-2.90;99.90
18218;DHT22;9234;49.344;11.120;2023-03-01T01:31:34;-2.80;99.90
18218;DHT22;9234;49.344;11.120;2023-03-01T01:34:05;-2.80;99.90
18218;DHT22;9234;49.344;11.120;2023-03-01T01:36:35;-2.80;99.90
18218;DHT22;9234;49.344;11.120;2023-03-01T01:39:04;-2.90;99.90
18218;DHT22;9234;49.344;11.120;2023-03-01T01:41:33;-2.80;99.90
18218;DHT22;9234;49.344;11.120;2023-03-01T01:44:17;-2.80;99.90
18218;DHT22;9234;49.344;11.120;2023-03-01T01:46:50;-2.90;99.90
18218;DHT22;9234;49.344;11.120;2023-03-01T01:49:29;-2.80;99.90
18218;DHT22;9234;49.344;11.120;2023-03-01T01:52:07;-2.90;99.90
18218;DHT22;9234;49.344;11.120;2023-03-01T01:54:43;-2.90;99.90
18218;DHT22;9234;49.344;11.120;2023-03-01T01:57:17;-2.90;99.90
18218;DHT22;9234;49.344;11.120;2023-03-01T01:59:51;-2.90;99.90
18218;DHT22;9234;49.344;11.120;2023-03-01T02:02:24;-2.90;99.90
18218;DHT22;9234;49.344;11.120;2023-03-01T02:05:00;-2.90;99.90
18218;DHT22;9234;49.344;11.120;2023-03-01T02:07:38;-2.90;99.90
18218;DHT22;9234;49.344;11.120;2023-03-01T02:10:09;-2.90;99.90
18218;DHT22;9234;49.344;11.120;2023-03-01T02:12:38;-2.90;99.90
18218;DHT22;9234;49.344;11.120;2023-03-01T02:15:08;-3.00;99.90
18218;DHT22;9234;49.344;11.120;2023-03-01T02:17:38;-3.00;99.90
18218;DHT22;9234;49.344;11.120;2023-03-01T02:20:13;-3.00;99.90
18218;DHT22;9234;49.344;11.120;2023-03-01T02:22:50;-3.00;99.90
18218;DHT22;9234;49.344;11.120;2023-03-01T02:25:29;-3.00;99.90
18218;DHT22;9234;49.344;11.120;2023-03-01T02:28:08;-3.00;99.90
18218;DHT22;9234;49.344;11.120;2023-03-01T02:30:41;-3.10;99.90
18218;DHT22;9234;49.344;11.120;2023-03-01T02:33:31;-3.10;99.90
18218;DHT22;9234;49.344;11.120;2023-03-01T02:36:06;-3.10;99.90
18218;DHT22;9234;49.344;11.120;2023-03-01T02:38:38;-3.10;99.90
18218;DHT22;9234;49.344;11.120;2023-03-01T02:41:08;-3.10;99.90
18218;DHT22;9234;49.344;11.120;2023-03-01T02:43:38;-3.10;99.90
18218;DHT22;9234;49.344;11.120;2023-03-01T02:46:14;-3.10;99.90
18218;DHT22;9234;49.344;11.120;2023-03-01T02:48:45;-3.10;99.90
18218;DHT22;9234;49.344;11.120;2023-03-01T02:51:26;-3.20;99.90
18218;DHT22;9234;49.344;11.120;2023-03-01T02:54:10;-3.20;99.90
18218;DHT22;9234;49.344;11.120;2023-03-01T02:56:44;-3.20;99.90
18218;DHT22;9234;49.344;11.120;2023-03-01T02:59:20;-3.20;99.90
18218;DHT22;9234;49.344;11.120;2023-03-01T03:01:51;-3.20;99.90
18218;DHT22;9234;49.344;11.120;2023-03-01T03:04:20;-3.20;99.90
18218;DHT22;9234;49.344;11.120;2023-03-01T03:06:50;-3.20;99.90
18218;DHT22;9234;49.344;11.120;2023-03-01T03:09:19;-3.30;99.90
18218;DHT22;9234;49.344;11.120;2023-03-01T03:11:47;-3.30;99.90
18218;DHT22;9234;49.344;11.120;2023-03-01T03:14:16;-3.30;99.90
18218;DHT22;9234;49.344;11.120;2023-03-01T03:16:49;-3.30;99.90
18218;DHT22;9234;49.344;11.120;2023-03-01T03:19:19;-3.30;99.90
18218;DHT22;9234;49.344;11.120;2023-03-01T03:21:47;-3.30;99.90
18218;DHT22;9234;49.344;11.120;2023-03-01T03:24:16;-3.30;99.90
18218;DHT22;9234;49.344;11.120;2023-03-01T03:26:45;-3.40;99.90
18218;DHT22;9234;49.344;11.120;2023-03-01T03:29:13;-3.40;99.90
18218;DHT22;9234;49.344;11.120;2023-03-01T03:31:41;-3.40;99.90
18218;DHT22;9234;49.344;11.120;2023-03-01T03:34:11;-3.40;99.90
18218;DHT22;9234;49.344;11.120;2023-03-01T03:36:44;-3.40;99.90
18218;DHT22;9234;49.344;11.120;2023-03-01T03:39:12;-3.40;99.90
18218;DHT22;9234;49.344;11.120;2023-03-01T03:41:41;-3.40;99.90
18218;DHT22;9234;49.344;11.120;2023-03-01T03:44:09;-3.40;99.90
18218;DHT22;9234;49.344;11.120;2023-03-01T03:46:37;-3.40;99.90
18218;DHT22;9234;49.344;11.120;2023-03-01T03:49:05;-3.40;99.90
18218;DHT22;9234;49.344;11.120;2023-03-01T03:51:35;-3.40;99.90
18218;DHT22;9234;49.344;11.120;2023-03-01T03:54:03;-3.40;99.90
18218;DHT22;9234;49.344;11.120;2023-03-01T03:56:31;-3.40;99.90
18218;DHT22;9234;49.344;11.120;2023-03-01T03:59:00;-3.50;99.90
18218;DHT22;9234;49.344;11.120;2023-03-01T04:01:28;-3.50;99.90
18218;DHT22;9234;49.344;11.120;2023-03-01T04:03:56;-3.50;99.90
18218;DHT22;9234;49.344;11.120;2023-03-01T04:06:30;-3.50;99.90
18218;DHT22;9234;49.344;11.120;2023-03-01T04:09:00;-3.50;99.90
18218;DHT22;9234;49.344;11.120;2023-03-01T04:11:29;-3.50;99.90
18218;DHT22;9234;49.344;11.120;2023-03-01T04:13:58;-3.50;99.90
18218;DHT22;9234;49.344;11.120;2023-03-01T04:16:26;-3.50;99.90
18218;DHT22;9234;49.344;11.120;2023-03-01T04:18:55;-3.50;99.90
18218;DHT22;9234;49.344;11.120;2023-03-01T04:21:26;-3.60;99.90
18218;DHT22;9234;49.344;11.120;2023-03-01T04:23:54;-3.60;99.90
18218;DHT22;9234;49.344;11.120;2023-03-01T04:26:24;-3.60;99.90
18218;DHT22;9234;49.344;11.120;2023-03-01T04:28:53;-3.60;99.90
18218;DHT22;9234;49.344;11.120;2023-03-01T04:31:21;-3.60;99.90
18218;DHT22;9234;49.344;11.120;2023-03-01T04:33:52;-3.60;99.90
18218;DHT22;9234;49.344;11.120;2023-03-01T04:36:23;-3.60;99.90
18218;DHT22;9234;49.344;11.120;2023-03-01T04:38:53;-3.60;99.90
18218;DHT22;9234;49.344;11.120;2023-03-01T04:41:24;-3.60;99.90
18218;DHT22;9234;49.344;11.120;2023-03-01T04:43:56;-3.60;99.90
18218;DHT22;9234;49.344;11.120;2023-03-01T04:46:26;-3.60;99.90
18218;DHT22;9234;49.344;11.120;2023-03-01T04:48:55;-3.60;99.90
18218;DHT22;9234;49.344;11.120;2023-03-01T04:51:24;-3.70;99.90
18218;DHT22;9234;49.344;11.120;2023-03-01T04:53:52;-3.60;99.90
18218;DHT22;9234;49.344;11.120;2023-03-01T04:56:21;-3.60;99.90
18218;DHT22;9234;49.344;11.120;2023-03-01T04:58:53;-3.60;99.90
18218;DHT22;9234;49.344;11.120;2023-03-01T05:01:21;-3.60;99.90
18218;DHT22;9234;49.344;11.120;2023-03-01T05:03:51;-3.60;99.90
18218;DHT22;9234;49.344;11.120;2023-03-01T05:06:20;-3.60;99.90
18218;DHT22;9234;49.344;11.120;2023-03-01T05:08:48;-3.60;99.90
18218;DHT22;9234;49.344;11.120;2023-03-01T05:11:17;-3.60;99.90
18218;DHT22;9234;49.344;11.120;2023-03-01T05:13:45;-3.60;99.90
18218;DHT22;9234;49.344;11.120;2023-03-01T05:16:14;-3.60;99.90
18218;DHT22;9234;49.344;11.120;2023-03-01T05:18:43;-3.60;99.90
18218;DHT22;9234;49.344;11.120;2023-03-01T05:21:14;-3.50;99.90
18218;DHT22;9234;49.344;11.120;2023-03-01T05:23:44;-3.50;99.90
18218;DHT22;9234;49.344;11.120;2023-03-01T05:26:14;-3.50;99.90
18218;DHT22;9234;49.344;11.120;2023-03-01T05:28:59;-3.60;99.90
18218;DHT22;9234;49.344;11.120;2023-03-01T05:31:29;-3.50;99.90
18218;DHT22;9234;49.344;11.120;2023-03-01T05:33:57;-3.50;99.90
18218;DHT22;9234;49.344;11.120;2023-03-01T05:36:26;-3.60;99.90
18218;DHT22;9234;49.344;11.120;2023-03-01T05:38:54;-3.50;99.90
18218;DHT22;9234;49.344;11.120;2023-03-01T05:41:22;-3.50;99.90
18218;DHT22;9234;49.344;11.120;2023-03-01T05:43:51;-3.60;99.90
18218;DHT22;9234;49.344;11.120;2023-03-01T05:46:19;-3.50;99.90
18218;DHT22;9234;49.344;11.120;2023-03-01T05:48:48;-3.50;99.90
18218;DHT22;9234;49.344;11.120;2023-03-01T05:51:17;-3.50;99.90
18218;DHT22;9234;49.344;11.120;2023-03-01T05:53:45;-3.50;99.90
18218;DHT22;9234;49.344;11.120;2023-03-01T05:56:13;-3.50;99.90
18218;DHT22;9234;49.344;11.120;2023-03-01T05:58:41;-3.50;99.90
18218;DHT22;9234;49.344;11.120;2023-03-01T06:01:11;-3.50;99.90
18218;DHT22;9234;49.344;11.120;2023-03-01T06:03:40;-3.50;99.90
18218;DHT22;9234;49.344;11.120;2023-03-01T06:06:10;-3.50;99.90
18218;DHT22;9234;49.344;11.120;2023-03-01T06:08:38;-3.50;99.90
18218;DHT22;9234;49.344;11.120;2023-03-01T06:11:06;-3.50;99.90
18218;DHT22;9234;49.344;11.120;2023-03-01T06:13:34;-3.50;99.90
18218;DHT22;9234;49.344;11.120;2023-03-01T06:16:04;-3.40;99.90
18218;DHT22;9234;49.344;11.120;2023-03-01T06:18:33;-3.40;99.90
18218;DHT22;9234;49.344;11.120;2023-03-01T06:21:02;-3.40;99.90
18218;DHT22;9234;49.344;11.120;2023-03-01T06:23:32;-3.40;99.90
18218;DHT22;9234;49.344;11.120;2023-03-01T06:26:05;-3.40;99.90
18218;DHT22;9234;49.344;11.120;2023-03-01T06:28:34;-3.40;99.90
18218;DHT22;9234;49.344;11.120;2023-03-01T06:31:03;-3.40;99.90
18218;DHT22;9234;49.344;11.120;2023-03-01T06:33:35;-3.40;99.90
18218;DHT22;9234;49.344;11.120;2023-03-01T06:36:04;-3.30;99.90
18218;DHT22;9234;49.344;11.120;2023-03-01T06:38:34;-3.30;99.90
18218;DHT22;9234;49.344;11.120;2023-03-01T06:41:03;-3.30;99.90
18218;DHT22;9234;49.344;11.120;2023-03-01T06:43:31;-3.30;99.90
18218;DHT22;9234;49.344;11.120;2023-03-01T06:45:59;-3.20;99.90
18218;DHT22;9234;49.344;11.120;2023-03-01T06:48:28;-3.20;99.90
18218;DHT22;9234;49.344;11.120;2023-03-01T06:50:58;-3.10;99.90
18218;DHT22;9234;49.344;11.120;2023-03-01T06:53:27;-3.10;99.90
18218;DHT22;9234;49.344;11.120;2023-03-01T06:55:57;-3.10;99.90
18218;DHT22;9234;49.344;11.120;2023-03-01T06:58:26;-3.00;99.90
18218;DHT22;9234;49.344;11.120;2023-03-01T07:00:54;-3.00;99.90
18218;DHT22;9234;49.344;11.120;2023-03-01T07:03:23;-2.90;99.90
18218;DHT22;9234;49.344;11.120;2023-03-01T07:05:51;-2.80;99.90
18218;DHT22;9234;49.344;11.120;2023-03-01T07:08:20;-2.80;99.90
18218;DHT22;9234;49.344;11.120;2023-03-01T07:10:48;-2.70;99.90
18218;DHT22;9234;49.344;11.120;2023-03-01T07:13:23;-2.70;99.90
18218;DHT22;9234;49.344;11.120;2023-03-01T07:15:51;-2.60;99.90
18218;DHT22;9234;49.344;11.120;2023-03-01T07:18:20;-2.50;99.90
18218;DHT22;9234;49.344;11.120;2023-03-01T07:20:48;-2.50;99.90
18218;DHT22;9234;49.344;11.120;2023-03-01T07:23:17;-2.40;99.90
18218;DHT22;9234;49.344;11.120;2023-03-01T07:25:51;-2.30;99.90
18218;DHT22;9234;49.344;11.120;2023-03-01T07:28:23;-2.20;99.90
18218;DHT22;9234;49.344;11.120;2023-03-01T07:30:52;-2.10;99.90
18218;DHT22;9234;49.344;11.120;2023-03-01T07:33:21;-2.10;99.90
18218;DHT22;9234;49.344;11.120;2023-03-01T07:35:56;-1.90;99.90
18218;DHT22;9234;49.344;11.120;2023-03-01T07:38:25;-1.80;99.90
18218;DHT22;9234;49.344;11.120;2023-03-01T07:40:57;-1.70;99.90
18218;DHT22;9234;49.344;11.120;2023-03-01T07:43:29;-1.60;99.90
18218;DHT22;9234;49.344;11.120;2023-03-01T07:45:58;-1.40;99.90
18218;DHT22;9234;49.344;11.120;2023-03-01T07:48:29;-1.30;99.90
18218;DHT22;9234;49.344;11.120;2023-03-01T07:50:58;-1.20;99.90
18218;DHT22;9234;49.344;11.120;2023-03-01T07:53:27;-1.10;99.90
18218;DHT22;9234;49.344;11.120;2023-03-01T07:56:02;-0.90;99.90
18218;DHT22;9234;49.344;11.120;2023-03-01T07:58:34;-0.80;99.90
18218;DHT22;9234;49.344;11.120;2023-03-01T08:01:03;-0.80;99.90
18218;DHT22;9234;49.344;11.120;2023-03-01T08:03:32;-0.60;99.90
18218;DHT22;9234;49.344;11.120;2023-03-01T08:06:01;-0.50;99.90
18218;DHT22;9234;49.344;11.120;2023-03-01T08:08:32;-0.40;99.90
18218;DHT22;9234;49.344;11.120;2023-03-01T08:11:02;-0.30;99.90
18218;DHT22;9234;49.344;11.120;2023-03-01T08:13:34;-0.20;99.90
18218;DHT22;9234;49.344;11.120;2023-03-01T08:16:03;0.00;99.90
18218;DHT22;9234;49.344;11.120;2023-03-01T08:18:33;0.10;99.90
18218;DHT22;9234;49.344;11.120;2023-03-01T08:21:03;0.20;99.90
18218;DHT22;9234;49.344;11.120;2023-03-01T08:23:31;0.40;99.90
18218;DHT22;9234;49.344;11.120;2023-03-01T08:26:05;0.50;99.90
18218;DHT22;9234;49.344;11.120;2023-03-01T08:28:36;0.60;99.90
18218;DHT22;9234;49.344;11.120;2023-03-01T08:31:13;0.80;99.90
18218;DHT22;9234;49.344;11.120;2023-03-01T08:33:43;1.00;99.90
18218;DHT22;9234;49.344;11.120;2023-03-01T08:36:11;1.10;99.90
18218;DHT22;9234;49.344;11.120;2023-03-01T08:38:39;1.20;99.90
18218;DHT22;9234;49.344;11.120;2023-03-01T08:41:07;1.30;99.90
18218;DHT22;9234;49.344;11.120;2023-03-01T08:43:37;1.40;99.90
18218;DHT22;9234;49.344;11.120;2023-03-01T08:46:05;1.50;99.90
18218;DHT22;9234;49.344;11.120;2023-03-01T08:48:34;1.60;99.90
18218;DHT22;9234;49.344;11.120;2023-03-01T08:51:09;1.70;99.90
18218;DHT22;9234;49.344;11.120;2023-03-01T08:53:38;1.80;99.90
18218;DHT22;9234;49.344;11.120;2023-03-01T08:56:07;1.90;99.90
18218;DHT22;9234;49.344;11.120;2023-03-01T08:58:38;2.10;99.90
18218;DHT22;9234;49.344;11.120;2023-03-01T09:01:07;2.20;99.90
18218;DHT22;9234;49.344;11.120;2023-03-01T09:03:36;2.30;99.90
18218;DHT22;9234;49.344;11.120;2023-03-01T09:06:06;2.40;99.90
18218;DHT22;9234;49.344;11.120;2023-03-01T09:08:36;2.50;99.90
18218;DHT22;9234;49.344;11.120;2023-03-01T09:11:06;2.60;99.90
18218;DHT22;9234;49.344;11.120;2023-03-01T09:13:35;2.70;99.90
18218;DHT22;9234;49.344;11.120;2023-03-01T09:16:07;2.80;99.90
18218;DHT22;9234;49.344;11.120;2023-03-01T09:18:36;2.90;99.90
18218;DHT22;9234;49.344;11.120;2023-03-01T09:21:06;3.00;99.90
18218;DHT22;9234;49.344;11.120;2023-03-01T09:23:36;3.10;99.90
18218;DHT22;9234;49.344;11.120;2023-03-01T09:26:06;3.30;99.90
18218;DHT22;9234;49.344;11.120;2023-03-01T09:28:35;3.40;99.90
18218;DHT22;9234;49.344;11.120;2023-03-01T09:31:06;3.50;99.90
18218;DHT22;9234;49.344;11.120;2023-03-01T09:33:35;3.60;99.90
18218;DHT22;9234;49.344;11.120;2023-03-01T09:36:05;3.70;99.90
18218;DHT22;9234;49.344;11.120;2023-03-01T09:38:34;3.80;99.90
18218;DHT22;9234;49.344;11.120;2023-03-01T09:41:10;3.90;99.90
18218;DHT22;9234;49.344;11.120;2023-03-01T09:43:50;4.10;99.90
18218;DHT22;9234;49.344;11.120;2023-03-01T09:46:24;4.20;99.90
18218;DHT22;9234;49.344;11.120;2023-03-01T09:48:56;4.30;99.90
18218;DHT22;9234;49.344;11.120;2023-03-01T09:51:31;4.50;99.90
18218;DHT22;9234;49.344;11.120;2023-03-01T09:54:03;4.60;99.90
18218;DHT22;9234;49.344;11.120;2023-03-01T09:56:36;4.70;99.90
18218;DHT22;9234;49.344;11.120;2023-03-01T09:59:19;4.80;99.90
18218;DHT22;9234;49.344;11.120;2023-03-01T10:01:59;4.90;99.90
18218;DHT22;9234;49.344;11.120;2023-03-01T10:04:41;5.00;99.90
18218;DHT22;9234;49.344;11.120;2023-03-01T10:07:25;5.10;99.90
18218;DHT22;9234;49.344;11.120;2023-03-01T10:09:58;5.30;99.90
18218;DHT22;9234;49.344;11.120;2023-03-01T10:12:32;5.30;99.90
18218;DHT22;9234;49.344;11.120;2023-03-01T10:15:06;5.50;99.90
18218;DHT22;9234;49.344;11.120;2023-03-01T10:17:44;5.60;99.90
18218;DHT22;9234;49.344;11.120;2023-03-01T10:20:21;5.80;99.30
18218;DHT22;9234;49.344;11.120;2023-03-01T10:22:51;5.90;99.30
18218;DHT22;9234;49.344;11.120;2023-03-01T10:25:36;6.10;98.60
18218;DHT22;9234;49.344;11.120;2023-03-01T10:28:17;6.20;97.70
18218;DHT22;9234;49.344;11.120;2023-03-01T10:30:47;6.30;97.70
18218;DHT22;9234;49.344;11.120;2023-03-01T10:33:22;6.50;97.80
18218;DHT22;9234;49.344;11.120;2023-03-01T10:35:53;6.60;97.90
18218;DHT22;9234;49.344;11.120;2023-03-01T10:38:21;6.80;97.50
18218;DHT22;9234;49.344;11.120;2023-03-01T10:40:54;7.00;97.50
18218;DHT22;9234;49.344;11.120;2023-03-01T10:43:26;7.10;96.20
18218;DHT22;9234;49.344;11.120;2023-03-01T10:45:58;7.30;95.60
18218;DHT22;9234;49.344;11.120;2023-03-01T10:48:28;7.40;95.70
18218;DHT22;9234;49.344;11.120;2023-03-01T10:51:06;7.60;95.50
18218;DHT22;9234;49.344;11.120;2023-03-01T10:53:37;7.80;94.70
18218;DHT22;9234;49.344;11.120;2023-03-01T10:56:09;7.90;94.80
18218;DHT22;9234;49.344;11.120;2023-03-01T10:58:41;8.10;94.30
18218;DHT22;9234;49.344;11.120;2023-03-01T11:01:27;8.20;93.30
18218;DHT22;9234;49.344;11.120;2023-03-01T11:04:13;8.40;92.80
18218;DHT22;9234;49.344;11.120;2023-03-01T11:06:41;8.50;92.60
18218;DHT22;9234;49.344;11.120;2023-03-01T11:09:15;8.70;92.30
18218;DHT22;9234;49.344;11.120;2023-03-01T11:11:46;8.80;91.30
18218;DHT22;9234;49.344;11.120;2023-03-01T11:14:22;8.90;90.80
18218;DHT22;9234;49.344;11.120;2023-03-01T11:17:01;9.00;91.20
18218;DHT22;9234;49.344;11.120;2023-03-01T11:19:32;9.20;91.00
18218;DHT22;9234;49.344;11.120;2023-03-01T11:22:03;9.30;90.00
18218;DHT22;9234;49.344;11.120;2023-03-01T11:24:40;9.40;90.40
18218;DHT22;9234;49.344;11.120;2023-03-01T11:27:19;9.60;90.70
18218;DHT22;9234;49.344;11.120;2023-03-01T11:29:53;9.80;86.70
18218;DHT22;9234;49.344;11.120;2023-03-01T11:32:27;9.70;85.20
18218;DHT22;9234;49.344;11.120;2023-03-01T11:35:05;9.70;84.40
18218;DHT22;9234;49.344;11.120;2023-03-01T11:37:48;9.80;85.50
18218;DHT22;9234;49.344;11.120;2023-03-01T11:40:32;9.90;84.70
18218;DHT22;9234;49.344;11.120;2023-03-01T11:43:11;9.90;85.80
18218;DHT22;9234;49.344;11.120;2023-03-01T11:45:53;10.10;87.10
18218;DHT22;9234;49.344;11.120;2023-03-01T11:48:47;10.30;83.30
18218;DHT22;9234;49.344;11.120;2023-03-01T11:51:38;10.30;83.60
18218;DHT22;9234;49.344;11.120;2023-03-01T11:54:18;10.50;84.40
18218;DHT22;9234;49.344;11.120;2023-03-01T11:57:00;10.70;83.10
18218;DHT22;9234;49.344;11.120;2023-03-01T11:59:54;10.80;81.30
18218;DHT22;9234;49.344;11.120;2023-03-01T12:06:22;11.20;83.00
18218;DHT22;9234;49.344;11.120;2023-03-01T12:09:13;11.40;80.60
18218;DHT22;9234;49.344;11.120;2023-03-01T12:12:03;11.60;80.00
18218;DHT22;9234;49.344;11.120;2023-03-01T12:15:05;11.70;77.20
18218;DHT22;9234;49.344;11.120;2023-03-01T12:18:12;11.70;77.20
18218;DHT22;9234;49.344;11.120;2023-03-01T12:20:58;12.00;78.60
18218;DHT22;9234;49.344;11.120;2023-03-01T12:23:52;12.30;77.00
18218;DHT22;9234;49.344;11.120;2023-03-01T12:26:43;12.30;73.60
18218;DHT22;9234;49.344;11.120;2023-03-01T12:29:24;12.30;73.50
18218;DHT22;9234;49.344;11.120;2023-03-01T12:32:18;12.50;74.80
18218;DHT22;9234;49.344;11.120;2023-03-01T12:35:12;12.60;72.30
18218;DHT22;9234;49.344;11.120;2023-03-01T12:37:54;12.60;73.90
18218;DHT22;9234;49.344;11.120;2023-03-01T12:40:40;12.90;75.70
18218;DHT22;9234;49.344;11.120;2023-03-01T12:43:30;13.10;73.50
18218;DHT22;9234;49.344;11.120;2023-03-01T12:46:35;13.30;73.20
18218;DHT22;9234;49.344;11.120;2023-03-01T12:49:23;13.50;73.10
18218;DHT22;9234;49.344;11.120;2023-03-01T12:51:59;13.70;73.20
18218;DHT22;9234;49.344;11.120;2023-03-01T12:54:31;13.70;68.20
18218;DHT22;9234;49.344;11.120;2023-03-01T12:57:12;13.50;67.50
18218;DHT22;9234;49.344;11.120;2023-03-01T12:59:55;13.50;69.90
18218;DHT22;9234;49.344;11.120;2023-03-01T13:02:41;13.70;70.90
18218;DHT22;9234;49.344;11.120;2023-03-01T13:05:29;14.00;71.50
18218;DHT22;9234;49.344;11.120;2023-03-01T13:08:10;14.40;70.40
18218;DHT22;9234;49.344;11.120;2023-03-01T13:10:46;14.40;67.10
18218;DHT22;9234;49.344;11.120;2023-03-01T13:13:23;14.60;67.10
18218;DHT22;9234;49.344;11.120;2023-03-01T13:15:53;14.70;67.90
18218;DHT22;9234;49.344;11.120;2023-03-01T13:18:31;14.90;67.40
18218;DHT22;9234;49.344;11.120;2023-03-01T13:21:02;14.90;66.00
18218;DHT22;9234;49.344;11.120;2023-03-01T13:23:35;14.90;65.80
18218;DHT22;9234;49.344;11.120;2023-03-01T13:26:10;15.00;65.00
18218;DHT22;9234;49.344;11.120;2023-03-01T13:28:55;14.90;63.10
18218;DHT22;9234;49.344;11.120;2023-03-01T13:31:59;14.90;64.80
18218;DHT22;9234;49.344;11.120;2023-03-01T13:34:51;15.10;64.80
18218;DHT22;9234;49.344;11.120;2023-03-01T13:37:23;15.20;65.30
18218;DHT22;9234;49.344;11.120;2023-03-01T13:39:59;15.40;65.50
18218;DHT22;9234;49.344;11.120;2023-03-01T13:42:38;15.60;65.80
18218;DHT22;9234;49.344;11.120;2023-03-01T13:45:23;15.70;64.80
18218;DHT22;9234;49.344;11.120;2023-03-01T13:48:03;15.80;62.70
18218;DHT22;9234;49.344;11.120;2023-03-01T13:50:43;15.70;63.90
18218;DHT22;9234;49.344;11.120;2023-03-01T13:53:18;15.80;64.10
18218;DHT22;9234;49.344;11.120;2023-03-01T13:55:51;15.80;61.60
18218;DHT22;9234;49.344;11.120;2023-03-01T13:58:26;15.60;62.00
18218;DHT22;9234;49.344;11.120;2023-03-01T14:00:59;15.40;62.00
18218;DHT22;9234;49.344;11.120;2023-03-01T14:03:29;15.20;62.80
18218;DHT22;9234;49.344;11.120;2023-03-01T14:06:05;14.90;62.30
18218;DHT22;9234;49.344;11.120;2023-03-01T14:08:49;14.80;64.30
18218;DHT22;9234;49.344;11.120;2023-03-01T14:14:51;14.70;65.90
18218;DHT22;9234;49.344;11.120;2023-03-01T14:17:44;14.80;65.70
18218;DHT22;9234;49.344;11.120;2023-03-01T14:20:21;14.60;65.40
18218;DHT22;9234;49.344;11.120;2023-03-01T14:22:54;14.60;65.20
18218;DHT22;9234;49.344;11.120;2023-03-01T14:25:26;14.60;65.80
18218;DHT22;9234;49.344;11.120;2023-03-01T14:28:03;14.60;67.30
18218;DHT22;9234;49.344;11.120;2023-03-01T14:30:42;14.60;66.70
18218;DHT22;9234;49.344;11.120;2023-03-01T14:33:22;14.70;67.10
18218;DHT22;9234;49.344;11.120;2023-03-01T14:35:54;14.80;67.20
18218;DHT22;9234;49.344;11.120;2023-03-01T14:38:33;14.60;65.80
18218;DHT22;9234;49.344;11.120;2023-03-01T14:41:06;14.40;65.50
18218;DHT22;9234;49.344;11.120;2023-03-01T14:43:37;14.20;66.40
18218;DHT22;9234;49.344;11.120;2023-03-01T14:46:18;13.90;66.20
18218;DHT22;9234;49.344;11.120;2023-03-01T14:48:51;13.60;67.50
18218;DHT22;9234;49.344;11.120;2023-03-01T14:51:21;13.50;67.80
18218;DHT22;9234;49.344;11.120;2023-03-01T14:53:50;13.50;69.10
18218;DHT22;9234;49.344;11.120;2023-03-01T14:56:19;13.50;68.60
18218;DHT22;9234;49.344;11.120;2023-03-01T14:58:51;13.60;69.50
18218;DHT22;9234;49.344;11.120;2023-03-01T15:01:21;13.70;69.80
18218;DHT22;9234;49.344;11.120;2023-03-01T15:03:51;13.80;68.80
18218;DHT22;9234;49.344;11.120;2023-03-01T15:06:22;13.90;69.10
18218;DHT22;9234;49.344;11.120;2023-03-01T15:08:52;14.00;68.00
18218;DHT22;9234;49.344;11.120;2023-03-01T15:11:29;14.10;69.00
18218;DHT22;9234;49.344;11.120;2023-03-01T15:13:59;14.20;68.90
18218;DHT22;9234;49.344;11.120;2023-03-01T15:16:29;14.40;69.30
18218;DHT22;9234;49.344;11.120;2023-03-01T15:19:03;14.30;67.60
18218;DHT22;9234;49.344;11.120;2023-03-01T15:21:34;14.40;69.00
18218;DHT22;9234;49.344;11.120;2023-03-01T15:24:07;14.50;68.70
18218;DHT22;9234;49.344;11.120;2023-03-01T15:26:51;14.70;68.20
18218;DHT22;9234;49.344;11.120;2023-03-01T15:29:25;14.70;67.20
18218;DHT22;9234;49.344;11.120;2023-03-01T15:31:59;14.80;67.30
18218;DHT22;9234;49.344;11.120;2023-03-01T15:34:33;14.80;67.30
18218;DHT22;9234;49.344;11.120;2023-03-01T15:37:05;14.70;67.00
18218;DHT22;9234;49.344;11.120;2023-03-01T15:39:55;14.60;67.10
18218;DHT22;9234;49.344;11.120;2023-03-01T15:42:37;14.40;66.50
18218;DHT22;9234;49.344;11.120;2023-03-01T15:45:10;14.10;67.20
18218;DHT22;9234;49.344;11.120;2023-03-01T15:47:49;13.80;68.60
18218;DHT22;9234;49.344;11.120;2023-03-01T15:50:22;13.70;68.90
18218;DHT22;9234;49.344;11.120;2023-03-01T15:52:53;13.60;68.90
18218;DHT22;9234;49.344;11.120;2023-03-01T15:55:24;13.40;68.90
18218;DHT22;9234;49.344;11.120;2023-03-01T15:58:01;13.30;69.50
18218;DHT22;9234;49.344;11.120;2023-03-01T16:00:33;13.10;69.90
18218;DHT22;9234;49.344;11.120;2023-03-01T16:03:01;12.90;70.20
18218;DHT22;9234;49.344;11.120;2023-03-01T16:05:32;12.50;70.60
18218;DHT22;9234;49.344;11.120;2023-03-01T16:08:03;12.20;71.60
18218;DHT22;9234;49.344;11.120;2023-03-01T16:10:33;12.10;72.50
18218;DHT22;9234;49.344;11.120;2023-03-01T16:13:02;11.90;73.10
18218;DHT22;9234;49.344;11.120;2023-03-01T16:15:32;11.60;73.40
18218;DHT22;9234;49.344;11.120;2023-03-01T16:18:02;11.30;74.30
18218;DHT22;9234;49.344;11.120;2023-03-01T16:20:34;11.10;74.70